VOZ990 YBBN-YSSY
Flight info
| Callsign | VOZ990 |
|---|---|
| Flight time | 1h 6m |
| Altitude | 36000 |
| Route | BN H91 IGDAM H652 TESAT |
| Aircraft | B738/M-SDE2E3FGHIRWXY/LB1 |
Departure
| Time | 2026-05-05 11:40 |
|---|---|
| Airport | Brisbane International Airport (YBBN) |
Arrival
| Time | 2026-05-05 12:46 |
|---|---|
| Airport | Sydney Kingsford Smith International Airport (YSSY) |
| Time | Latitude | Longitude | Altitude | Speed | Heading |
|---|---|---|---|---|---|
| 2026-05-05 10:52 | -27.38840 | 153.12008 | 17 ft | 0 kts | 294° |
| 2026-05-05 11:25 | -27.38843 | 153.12017 | 17 ft | 3 kts | 294° |
| 2026-05-05 11:25 | -27.38851 | 153.12038 | 17 ft | 3 kts | 293° |
| 2026-05-05 11:25 | -27.38859 | 153.12059 | 20 ft | 3 kts | 293° |
| 2026-05-05 11:25 | -27.38866 | 153.12076 | 18 ft | 3 kts | 311° |
| 2026-05-05 11:26 | -27.38876 | 153.12084 | 20 ft | 3 kts | 18° |
| 2026-05-05 11:26 | -27.38888 | 153.12074 | 17 ft | 2 kts | 57° |
| 2026-05-05 11:26 | -27.38894 | 153.12063 | 18 ft | 3 kts | 55° |
| 2026-05-05 11:26 | -27.38907 | 153.12046 | 17 ft | 3 kts | 45° |
| 2026-05-05 11:27 | -27.38917 | 153.12034 | 19 ft | 1 kts | 49° |
| 2026-05-05 11:27 | -27.38918 | 153.12033 | 19 ft | 0 kts | 49° |
| 2026-05-05 11:32 | -27.38917 | 153.12035 | 19 ft | 2 kts | 49° |
| 2026-05-05 11:32 | -27.38887 | 153.12078 | 17 ft | 11 kts | 60° |
| 2026-05-05 11:33 | -27.38887 | 153.12200 | 18 ft | 13 kts | 103° |
| 2026-05-05 11:33 | -27.38834 | 153.12284 | 17 ft | 16 kts | 27° |
| 2026-05-05 11:33 | -27.38772 | 153.12321 | 17 ft | 14 kts | 36° |
| 2026-05-05 11:33 | -27.38744 | 153.12461 | 17 ft | 15 kts | 58° |
| 2026-05-05 11:34 | -27.38688 | 153.12506 | 18 ft | 16 kts | 27° |
| 2026-05-05 11:34 | -27.38579 | 153.12569 | 18 ft | 19 kts | 27° |
| 2026-05-05 11:34 | -27.38459 | 153.12638 | 19 ft | 19 kts | 27° |
| 2026-05-05 11:34 | -27.38343 | 153.12706 | 19 ft | 18 kts | 28° |
| 2026-05-05 11:35 | -27.38230 | 153.12769 | 20 ft | 18 kts | 26° |
| 2026-05-05 11:35 | -27.38119 | 153.12832 | 18 ft | 12 kts | 27° |
| 2026-05-05 11:35 | -27.38047 | 153.12880 | 17 ft | 12 kts | 51° |
| 2026-05-05 11:35 | -27.38050 | 153.12946 | 20 ft | 6 kts | 115° |
| 2026-05-05 11:36 | -27.38051 | 153.12950 | 19 ft | 0 kts | 115° |
| 2026-05-05 11:37 | -27.38059 | 153.12968 | 20 ft | 9 kts | 115° |
| 2026-05-05 11:37 | -27.38090 | 153.13040 | 20 ft | 7 kts | 116° |
| 2026-05-05 11:38 | -27.38129 | 153.13052 | 20 ft | 6 kts | 198° |
| 2026-05-05 11:38 | -27.38166 | 153.13032 | 21 ft | 0 kts | 206° |
| 2026-05-05 11:39 | -27.38183 | 153.13022 | 23 ft | 17 kts | 206° |
| 2026-05-05 11:39 | -27.38588 | 153.12790 | 23 ft | 112 kts | 207° |
| 2026-05-05 11:40 | -27.39526 | 153.12256 | 115 ft | 181 kts | 207° |
| 2026-05-05 11:40 | -27.40680 | 153.11602 | 1065 ft | 183 kts | 205° |
| 2026-05-05 11:40 | -27.41860 | 153.11128 | 1951 ft | 189 kts | 182° |
| 2026-05-05 11:40 | -27.43209 | 153.11360 | 2599 ft | 203 kts | 158° |
| 2026-05-05 11:41 | -27.44493 | 153.12063 | 3222 ft | 207 kts | 152° |
| 2026-05-05 11:41 | -27.45800 | 153.12830 | 3710 ft | 217 kts | 153° |
| 2026-05-05 11:41 | -27.47184 | 153.13596 | 4218 ft | 225 kts | 154° |
| 2026-05-05 11:41 | -27.48607 | 153.14384 | 4941 ft | 230 kts | 155° |
| 2026-05-05 11:42 | -27.50160 | 153.14789 | 5707 ft | 237 kts | 180° |
| 2026-05-05 11:42 | -27.51885 | 153.14528 | 6101 ft | 261 kts | 191° |
| 2026-05-05 11:42 | -27.53688 | 153.14056 | 6835 ft | 270 kts | 192° |
| 2026-05-05 11:42 | -27.55523 | 153.13557 | 7683 ft | 273 kts | 194° |
| 2026-05-05 11:43 | -27.57336 | 153.12894 | 8552 ft | 276 kts | 199° |
| 2026-05-05 11:43 | -27.59153 | 153.12154 | 9398 ft | 280 kts | 199° |
| 2026-05-05 11:43 | -27.60999 | 153.11406 | 10216 ft | 284 kts | 199° |
| 2026-05-05 11:43 | -27.62921 | 153.10667 | 10732 ft | 299 kts | 197° |
| 2026-05-05 11:44 | -27.64943 | 153.09983 | 11349 ft | 308 kts | 197° |
| 2026-05-05 11:44 | -27.67020 | 153.09305 | 12073 ft | 313 kts | 197° |
| 2026-05-05 11:44 | -27.69131 | 153.08616 | 12799 ft | 319 kts | 198° |
| 2026-05-05 11:44 | -27.71281 | 153.07907 | 13507 ft | 325 kts | 198° |
| 2026-05-05 11:45 | -27.73476 | 153.07180 | 14178 ft | 331 kts | 199° |
| 2026-05-05 11:45 | -27.75703 | 153.06438 | 14828 ft | 336 kts | 199° |
| 2026-05-05 11:45 | -27.77962 | 153.05683 | 15498 ft | 341 kts | 200° |
| 2026-05-05 11:45 | -27.80253 | 153.04917 | 16151 ft | 346 kts | 201° |
| 2026-05-05 11:46 | -27.82567 | 153.04117 | 16794 ft | 350 kts | 204° |
| 2026-05-05 11:46 | -27.84860 | 153.03168 | 17446 ft | 353 kts | 207° |
| 2026-05-05 11:46 | -27.87153 | 153.02146 | 18109 ft | 357 kts | 208° |
| 2026-05-05 11:46 | -27.89475 | 153.01098 | 18722 ft | 361 kts | 208° |
| 2026-05-05 11:47 | -27.91812 | 153.00051 | 19377 ft | 362 kts | 208° |
| 2026-05-05 11:47 | -27.94154 | 152.99013 | 20069 ft | 362 kts | 208° |
| 2026-05-05 11:47 | -27.96503 | 152.97978 | 20718 ft | 364 kts | 208° |
| 2026-05-05 11:47 | -27.98870 | 152.96940 | 21338 ft | 366 kts | 208° |
| 2026-05-05 11:48 | -28.03645 | 152.94847 | 22532 ft | 371 kts | 208° |
| 2026-05-05 11:48 | -28.06058 | 152.93789 | 23130 ft | 373 kts | 208° |
| 2026-05-05 11:48 | -28.08491 | 152.92722 | 23703 ft | 376 kts | 208° |
| 2026-05-05 11:49 | -28.10941 | 152.91642 | 24148 ft | 380 kts | 209° |
| 2026-05-05 11:49 | -28.13414 | 152.90542 | 24586 ft | 384 kts | 209° |
| 2026-05-05 11:49 | -28.15910 | 152.89428 | 25024 ft | 387 kts | 210° |
| 2026-05-05 11:49 | -28.18392 | 152.88320 | 25456 ft | 391 kts | 210° |
| 2026-05-05 11:50 | -28.20930 | 152.87188 | 25892 ft | 394 kts | 211° |
| 2026-05-05 11:50 | -28.23489 | 152.86046 | 26332 ft | 397 kts | 211° |
| 2026-05-05 11:50 | -28.26069 | 152.84894 | 26766 ft | 400 kts | 211° |
| 2026-05-05 11:50 | -28.28668 | 152.83734 | 27196 ft | 403 kts | 211° |
| 2026-05-05 11:51 | -28.31288 | 152.82565 | 27633 ft | 406 kts | 212° |
| 2026-05-05 11:51 | -28.33922 | 152.81388 | 28079 ft | 409 kts | 212° |
| 2026-05-05 11:51 | -28.36579 | 152.80201 | 28465 ft | 412 kts | 212° |
| 2026-05-05 11:51 | -28.39252 | 152.79006 | 28879 ft | 413 kts | 212° |
| 2026-05-05 11:52 | -28.41928 | 152.77812 | 29330 ft | 414 kts | 213° |
| 2026-05-05 11:52 | -28.44626 | 152.76602 | 29648 ft | 419 kts | 213° |
| 2026-05-05 11:52 | -28.47350 | 152.75380 | 30032 ft | 422 kts | 213° |
| 2026-05-05 11:52 | -28.50087 | 152.74154 | 30401 ft | 424 kts | 213° |
| 2026-05-05 11:53 | -28.52836 | 152.72923 | 30751 ft | 425 kts | 214° |
| 2026-05-05 11:53 | -28.55603 | 152.71682 | 31025 ft | 429 kts | 213° |
| 2026-05-05 11:53 | -28.58387 | 152.70431 | 31302 ft | 432 kts | 213° |
| 2026-05-05 11:53 | -28.61197 | 152.69169 | 31610 ft | 435 kts | 213° |
| 2026-05-05 11:54 | -28.64015 | 152.67903 | 31908 ft | 437 kts | 213° |
| 2026-05-05 11:54 | -28.66853 | 152.66628 | 32191 ft | 439 kts | 213° |
| 2026-05-05 11:54 | -28.69705 | 152.65345 | 32468 ft | 442 kts | 213° |
| 2026-05-05 11:54 | -28.72575 | 152.64053 | 32722 ft | 445 kts | 213° |
| 2026-05-05 11:55 | -28.75465 | 152.62752 | 32983 ft | 448 kts | 213° |
| 2026-05-05 11:55 | -28.78371 | 152.61443 | 33268 ft | 450 kts | 213° |
| 2026-05-05 11:55 | -28.81282 | 152.60131 | 33542 ft | 452 kts | 214° |
| 2026-05-05 11:55 | -28.84215 | 152.58808 | 33782 ft | 454 kts | 214° |
| 2026-05-05 11:56 | -28.87080 | 152.57353 | 34013 ft | 449 kts | 218° |
| 2026-05-05 11:56 | -28.89862 | 152.55742 | 34246 ft | 448 kts | 220° |
| 2026-05-05 11:56 | -28.92616 | 152.54071 | 34479 ft | 448 kts | 220° |
| 2026-05-05 11:56 | -28.95360 | 152.52388 | 34738 ft | 448 kts | 221° |
| 2026-05-05 11:57 | -28.98107 | 152.50710 | 34997 ft | 448 kts | 221° |
| 2026-05-05 11:57 | -29.00873 | 152.49032 | 35141 ft | 451 kts | 220° |
| 2026-05-05 11:57 | -29.03652 | 152.47359 | 35347 ft | 453 kts | 220° |
| 2026-05-05 11:57 | -29.06448 | 152.45687 | 35630 ft | 452 kts | 220° |
| 2026-05-05 11:58 | -29.09238 | 152.44026 | 35888 ft | 452 kts | 220° |
| 2026-05-05 11:58 | -29.12030 | 152.42362 | 36061 ft | 454 kts | 220° |
| 2026-05-05 11:58 | -29.14830 | 152.40693 | 36168 ft | 454 kts | 220° |
| 2026-05-05 11:58 | -29.17592 | 152.39045 | 36172 ft | 454 kts | 220° |
| 2026-05-05 11:59 | -29.23155 | 152.35730 | 36178 ft | 447 kts | 220° |
| 2026-05-05 11:59 | -29.28660 | 152.32439 | 36161 ft | 445 kts | 220° |
| 2026-05-05 12:00 | -29.34129 | 152.29160 | 36184 ft | 443 kts | 220° |
| 2026-05-05 12:00 | -29.39589 | 152.25879 | 36187 ft | 444 kts | 220° |
| 2026-05-05 12:01 | -29.45059 | 152.22592 | 36179 ft | 444 kts | 220° |
| 2026-05-05 12:01 | -29.50553 | 152.19285 | 36186 ft | 448 kts | 220° |
| 2026-05-05 12:02 | -29.56091 | 152.15951 | 36184 ft | 451 kts | 220° |
| 2026-05-05 12:02 | -29.61656 | 152.12598 | 36195 ft | 453 kts | 219° |
| 2026-05-05 12:03 | -29.67243 | 152.09228 | 36198 ft | 453 kts | 219° |
| 2026-05-05 12:03 | -29.73180 | 152.06531 | 36182 ft | 468 kts | 205° |
| 2026-05-05 12:04 | -29.79527 | 152.04916 | 36178 ft | 468 kts | 202° |
| 2026-05-05 12:04 | -29.85875 | 152.03359 | 36190 ft | 465 kts | 203° |
| 2026-05-05 12:05 | -29.92192 | 152.01743 | 36184 ft | 464 kts | 203° |
| 2026-05-05 12:05 | -29.98489 | 152.00095 | 36187 ft | 464 kts | 203° |
| 2026-05-05 12:06 | -30.04787 | 151.98439 | 36194 ft | 464 kts | 203° |
| 2026-05-05 12:06 | -30.11088 | 151.96782 | 36203 ft | 465 kts | 203° |
| 2026-05-05 12:07 | -30.17371 | 151.95131 | 36190 ft | 466 kts | 203° |
| 2026-05-05 12:07 | -30.23700 | 151.93467 | 36199 ft | 466 kts | 203° |
| 2026-05-05 12:08 | -30.30026 | 151.91800 | 36198 ft | 467 kts | 203° |
| 2026-05-05 12:08 | -30.36132 | 151.89597 | 36204 ft | 453 kts | 212° |
| 2026-05-05 12:09 | -30.41951 | 151.86829 | 36200 ft | 452 kts | 214° |
| 2026-05-05 12:09 | -30.47762 | 151.84035 | 36193 ft | 452 kts | 213° |
| 2026-05-05 12:10 | -30.53595 | 151.81280 | 36197 ft | 453 kts | 213° |
| 2026-05-05 12:10 | -30.59444 | 151.78544 | 36191 ft | 453 kts | 213° |
| 2026-05-05 12:11 | -30.65290 | 151.75813 | 36194 ft | 453 kts | 213° |
| 2026-05-05 12:11 | -30.71132 | 151.73077 | 36198 ft | 452 kts | 213° |
| 2026-05-05 12:12 | -30.76969 | 151.70339 | 36200 ft | 452 kts | 213° |
| 2026-05-05 12:12 | -30.82797 | 151.67602 | 36204 ft | 452 kts | 213° |
| 2026-05-05 12:13 | -30.88626 | 151.64859 | 36195 ft | 452 kts | 213° |
| 2026-05-05 12:13 | -30.94453 | 151.62115 | 36205 ft | 451 kts | 213° |
| 2026-05-05 12:14 | -31.00274 | 151.59369 | 36205 ft | 452 kts | 213° |
| 2026-05-05 12:14 | -31.06101 | 151.56617 | 36208 ft | 452 kts | 213° |
| 2026-05-05 12:15 | -31.11937 | 151.53857 | 36213 ft | 452 kts | 213° |
| 2026-05-05 12:15 | -31.17777 | 151.51091 | 36209 ft | 453 kts | 213° |
| 2026-05-05 12:16 | -31.23582 | 151.48339 | 36216 ft | 453 kts | 213° |
| 2026-05-05 12:16 | -31.29432 | 151.45562 | 36214 ft | 454 kts | 213° |
| 2026-05-05 12:17 | -31.35292 | 151.42775 | 36216 ft | 455 kts | 213° |
| 2026-05-05 12:17 | -31.41170 | 151.40010 | 36225 ft | 457 kts | 212° |
| 2026-05-05 12:18 | -31.47125 | 151.37363 | 36227 ft | 458 kts | 211° |
| 2026-05-05 12:18 | -31.53089 | 151.34735 | 36238 ft | 457 kts | 211° |
| 2026-05-05 12:19 | -31.59037 | 151.32089 | 36244 ft | 457 kts | 211° |
| 2026-05-05 12:19 | -31.64986 | 151.29428 | 36238 ft | 457 kts | 211° |
| 2026-05-05 12:20 | -31.70933 | 151.26762 | 36236 ft | 457 kts | 211° |
| 2026-05-05 12:20 | -31.76867 | 151.24100 | 36247 ft | 456 kts | 211° |
| 2026-05-05 12:21 | -31.82786 | 151.21442 | 36238 ft | 455 kts | 211° |
| 2026-05-05 12:21 | -31.87762 | 151.19198 | 35713 ft | 461 kts | 211° |
| 2026-05-05 12:22 | -31.90716 | 151.17869 | 35180 ft | 460 kts | 211° |
| 2026-05-05 12:22 | -31.93706 | 151.16524 | 34598 ft | 460 kts | 211° |
| 2026-05-05 12:22 | -31.96710 | 151.15171 | 33688 ft | 467 kts | 210° |
| 2026-05-05 12:22 | -31.99760 | 151.13799 | 32990 ft | 469 kts | 210° |
| 2026-05-05 12:23 | -32.02811 | 151.12432 | 32267 ft | 470 kts | 210° |
| 2026-05-05 12:23 | -32.05871 | 151.11062 | 31579 ft | 471 kts | 209° |
| 2026-05-05 12:23 | -32.08939 | 151.09688 | 30872 ft | 472 kts | 209° |
| 2026-05-05 12:23 | -32.12010 | 151.08310 | 30114 ft | 473 kts | 208° |
| 2026-05-05 12:24 | -32.15084 | 151.06928 | 29238 ft | 474 kts | 208° |
| 2026-05-05 12:24 | -32.18163 | 151.05544 | 28531 ft | 471 kts | 207° |
| 2026-05-05 12:24 | -32.21198 | 151.04181 | 27969 ft | 464 kts | 207° |
| 2026-05-05 12:24 | -32.24203 | 151.02829 | 27402 ft | 459 kts | 207° |
| 2026-05-05 12:25 | -32.27169 | 151.01493 | 26838 ft | 454 kts | 206° |
| 2026-05-05 12:25 | -32.30103 | 151.00168 | 26281 ft | 449 kts | 206° |
| 2026-05-05 12:25 | -32.33009 | 150.98854 | 25734 ft | 445 kts | 206° |
| 2026-05-05 12:25 | -32.35883 | 150.97553 | 25195 ft | 440 kts | 206° |
| 2026-05-05 12:26 | -32.38734 | 150.96262 | 24658 ft | 436 kts | 205° |
| 2026-05-05 12:26 | -32.41557 | 150.94984 | 24124 ft | 433 kts | 205° |
| 2026-05-05 12:26 | -32.44359 | 150.93715 | 23538 ft | 430 kts | 205° |
| 2026-05-05 12:26 | -32.47163 | 150.92521 | 22930 ft | 428 kts | 199° |
| 2026-05-05 12:27 | -32.50081 | 150.91855 | 22407 ft | 427 kts | 189° |
| 2026-05-05 12:27 | -32.53022 | 150.91737 | 22132 ft | 420 kts | 180° |
| 2026-05-05 12:27 | -32.55905 | 150.92144 | 21884 ft | 413 kts | 174° |
| 2026-05-05 12:27 | -32.58742 | 150.92685 | 21641 ft | 417 kts | 173° |
| 2026-05-05 12:28 | -32.61626 | 150.93249 | 21387 ft | 422 kts | 173° |
| 2026-05-05 12:28 | -32.64526 | 150.93804 | 20986 ft | 421 kts | 173° |
| 2026-05-05 12:28 | -32.67402 | 150.94340 | 20497 ft | 416 kts | 173° |
| 2026-05-05 12:28 | -32.70251 | 150.94860 | 19964 ft | 412 kts | 173° |
| 2026-05-05 12:29 | -32.73077 | 150.95369 | 19453 ft | 409 kts | 173° |
| 2026-05-05 12:29 | -32.75878 | 150.95873 | 18926 ft | 405 kts | 173° |
| 2026-05-05 12:29 | -32.78652 | 150.96373 | 18404 ft | 402 kts | 172° |
| 2026-05-05 12:29 | -32.81395 | 150.96864 | 18045 ft | 393 kts | 173° |
| 2026-05-05 12:30 | -32.84083 | 150.97341 | 17558 ft | 388 kts | 172° |
| 2026-05-05 12:30 | -32.86742 | 150.97811 | 17045 ft | 385 kts | 172° |
| 2026-05-05 12:30 | -32.89378 | 150.98278 | 16534 ft | 381 kts | 172° |
| 2026-05-05 12:30 | -32.91991 | 150.98741 | 16037 ft | 378 kts | 172° |
| 2026-05-05 12:31 | -32.94585 | 150.99201 | 15538 ft | 375 kts | 172° |
| 2026-05-05 12:31 | -32.97159 | 150.99658 | 15050 ft | 373 kts | 172° |
| 2026-05-05 12:31 | -32.99717 | 151.00113 | 14554 ft | 370 kts | 172° |
| 2026-05-05 12:31 | -33.02260 | 151.00566 | 14064 ft | 368 kts | 172° |
| 2026-05-05 12:32 | -33.04784 | 151.01016 | 13529 ft | 366 kts | 172° |
| 2026-05-05 12:32 | -33.07297 | 151.01464 | 13005 ft | 364 kts | 172° |
| 2026-05-05 12:32 | -33.09793 | 151.01909 | 12506 ft | 361 kts | 172° |
| 2026-05-05 12:32 | -33.12270 | 151.02351 | 12015 ft | 359 kts | 172° |
| 2026-05-05 12:33 | -33.14728 | 151.02790 | 11528 ft | 356 kts | 172° |
| 2026-05-05 12:33 | -33.17171 | 151.03227 | 11106 ft | 353 kts | 172° |
| 2026-05-05 12:33 | -33.19545 | 151.03652 | 10959 ft | 336 kts | 172° |
| 2026-05-05 12:33 | -33.21794 | 151.04055 | 10798 ft | 317 kts | 172° |
| 2026-05-05 12:34 | -33.23914 | 151.04435 | 10662 ft | 300 kts | 172° |
| 2026-05-05 12:34 | -33.25944 | 151.04817 | 10554 ft | 293 kts | 172° |
| 2026-05-05 12:34 | -33.27946 | 151.05203 | 10441 ft | 291 kts | 172° |
| 2026-05-05 12:34 | -33.29930 | 151.05585 | 10342 ft | 286 kts | 172° |
| 2026-05-05 12:35 | -33.31870 | 151.05959 | 10181 ft | 280 kts | 172° |
| 2026-05-05 12:35 | -33.33792 | 151.06327 | 9873 ft | 279 kts | 172° |
| 2026-05-05 12:35 | -33.35717 | 151.06696 | 9429 ft | 283 kts | 172° |
| 2026-05-05 12:35 | -33.37658 | 151.07069 | 9116 ft | 282 kts | 172° |
| 2026-05-05 12:36 | -33.39570 | 151.07435 | 8812 ft | 281 kts | 172° |
| 2026-05-05 12:36 | -33.41500 | 151.07806 | 8501 ft | 280 kts | 172° |
| 2026-05-05 12:36 | -33.43417 | 151.08174 | 8220 ft | 279 kts | 172° |
| 2026-05-05 12:36 | -33.45331 | 151.08541 | 7925 ft | 278 kts | 171° |
| 2026-05-05 12:37 | -33.47233 | 151.08907 | 7636 ft | 276 kts | 171° |
| 2026-05-05 12:37 | -33.49125 | 151.09271 | 7348 ft | 275 kts | 171° |
| 2026-05-05 12:37 | -33.51010 | 151.09633 | 7065 ft | 274 kts | 171° |
| 2026-05-05 12:37 | -33.52886 | 151.09995 | 6780 ft | 272 kts | 171° |
| 2026-05-05 12:38 | -33.54754 | 151.10354 | 6493 ft | 271 kts | 171° |
| 2026-05-05 12:38 | -33.56615 | 151.10713 | 6148 ft | 271 kts | 171° |
| 2026-05-05 12:38 | -33.58471 | 151.11070 | 5915 ft | 268 kts | 171° |
| 2026-05-05 12:38 | -33.60308 | 151.11424 | 5618 ft | 267 kts | 170° |
| 2026-05-05 12:39 | -33.62136 | 151.11747 | 5344 ft | 265 kts | 173° |
| 2026-05-05 12:39 | -33.63962 | 151.11961 | 5079 ft | 263 kts | 174° |
| 2026-05-05 12:39 | -33.65777 | 151.12154 | 4807 ft | 261 kts | 174° |
| 2026-05-05 12:39 | -33.67424 | 151.12335 | 4553 ft | 259 kts | 174° |
| 2026-05-05 12:40 | -33.69218 | 151.12538 | 4275 ft | 258 kts | 173° |
| 2026-05-05 12:40 | -33.70994 | 151.12744 | 4053 ft | 254 kts | 172° |
| 2026-05-05 12:40 | -33.72713 | 151.13048 | 4004 ft | 246 kts | 168° |
| 2026-05-05 12:40 | -33.74350 | 151.13446 | 3985 ft | 234 kts | 167° |
| 2026-05-05 12:41 | -33.75907 | 151.13855 | 3851 ft | 225 kts | 167° |
| 2026-05-05 12:41 | -33.77420 | 151.14253 | 3569 ft | 219 kts | 167° |
| 2026-05-05 12:41 | -33.78888 | 151.14638 | 3279 ft | 211 kts | 167° |
| 2026-05-05 12:41 | -33.80275 | 151.15000 | 2998 ft | 197 kts | 167° |
| 2026-05-05 12:42 | -33.81567 | 151.15337 | 2736 ft | 183 kts | 167° |
| 2026-05-05 12:42 | -33.82768 | 151.15650 | 2509 ft | 170 kts | 167° |
| 2026-05-05 12:42 | -33.83884 | 151.15942 | 2279 ft | 158 kts | 167° |
| 2026-05-05 12:42 | -33.84909 | 151.16209 | 2100 ft | 143 kts | 168° |
| 2026-05-05 12:43 | -33.85822 | 151.16448 | 1913 ft | 129 kts | 168° |
| 2026-05-05 12:43 | -33.86682 | 151.16672 | 1729 ft | 125 kts | 168° |
| 2026-05-05 12:43 | -33.87544 | 151.16897 | 1571 ft | 129 kts | 168° |
| 2026-05-05 12:43 | -33.88425 | 151.17127 | 1395 ft | 129 kts | 168° |
| 2026-05-05 12:44 | -33.89299 | 151.17355 | 1214 ft | 129 kts | 168° |
| 2026-05-05 12:44 | -33.90177 | 151.17584 | 1045 ft | 130 kts | 169° |
| 2026-05-05 12:44 | -33.91055 | 151.17813 | 879 ft | 130 kts | 170° |
| 2026-05-05 12:44 | -33.91937 | 151.18043 | 705 ft | 130 kts | 170° |
| 2026-05-05 12:45 | -33.92835 | 151.18277 | 533 ft | 133 kts | 170° |
| 2026-05-05 12:45 | -33.93736 | 151.18513 | 367 ft | 131 kts | 171° |
| 2026-05-05 12:45 | -33.94643 | 151.18747 | 172 ft | 134 kts | 172° |
| 2026-05-05 12:45 | -33.95536 | 151.18978 | 28 ft | 125 kts | 169° |
| 2026-05-05 12:46 | -33.96241 | 151.19159 | 28 ft | 82 kts | 167° |
| 2026-05-05 12:46 | -33.96652 | 151.19264 | 22 ft | 40 kts | 167° |
| 2026-05-05 12:46 | -33.96839 | 151.19295 | 23 ft | 23 kts | 179° |
| 2026-05-05 12:46 | -33.96987 | 151.19276 | 30 ft | 16 kts | 191° |
| 2026-05-05 12:47 | -33.97070 | 151.19252 | 28 ft | 12 kts | 195° |
| 2026-05-05 12:47 | -33.97122 | 151.19188 | 29 ft | 11 kts | 266° |
| 2026-05-05 12:47 | -33.97070 | 151.19129 | 29 ft | 11 kts | 346° |
| 2026-05-05 12:47 | -33.96996 | 151.19110 | 29 ft | 11 kts | 348° |
| 2026-05-05 12:48 | -33.96912 | 151.19088 | 29 ft | 14 kts | 348° |
| 2026-05-05 12:48 | -33.96801 | 151.19063 | 29 ft | 18 kts | 357° |
| 2026-05-05 12:48 | -33.96671 | 151.19070 | 29 ft | 20 kts | 348° |
| 2026-05-05 12:48 | -33.96530 | 151.19034 | 29 ft | 22 kts | 348° |
| 2026-05-05 12:49 | -33.96374 | 151.18993 | 29 ft | 24 kts | 347° |
| 2026-05-05 12:49 | -33.96213 | 151.18952 | 29 ft | 23 kts | 348° |
| 2026-05-05 12:49 | -33.96059 | 151.18912 | 29 ft | 23 kts | 348° |
| 2026-05-05 12:49 | -33.95891 | 151.18868 | 29 ft | 26 kts | 348° |
| 2026-05-05 12:50 | -33.95705 | 151.18820 | 29 ft | 28 kts | 347° |
| 2026-05-05 12:50 | -33.95513 | 151.18770 | 29 ft | 28 kts | 348° |
| 2026-05-05 12:50 | -33.95331 | 151.18722 | 29 ft | 26 kts | 346° |
| 2026-05-05 12:50 | -33.95184 | 151.18619 | 29 ft | 24 kts | 317° |
| 2026-05-05 12:51 | -33.95113 | 151.18453 | 29 ft | 23 kts | 266° |
| 2026-05-05 12:51 | -33.95144 | 151.18269 | 29 ft | 22 kts | 258° |
| 2026-05-05 12:51 | -33.95174 | 151.18100 | 29 ft | 18 kts | 257° |
| 2026-05-05 12:51 | -33.95176 | 151.17982 | 28 ft | 13 kts | 302° |
| 2026-05-05 12:52 | -33.95094 | 151.17942 | 29 ft | 13 kts | 348° |
| 2026-05-05 12:52 | -33.94999 | 151.17917 | 29 ft | 16 kts | 348° |
| 2026-05-05 12:52 | -33.94876 | 151.17885 | 29 ft | 20 kts | 348° |
| 2026-05-05 12:52 | -33.94734 | 151.17848 | 29 ft | 21 kts | 348° |
| 2026-05-05 12:53 | -33.94587 | 151.17810 | 29 ft | 18 kts | 348° |
| 2026-05-05 12:53 | -33.94474 | 151.17778 | 29 ft | 17 kts | 346° |
| 2026-05-05 12:53 | -33.94346 | 151.17738 | 29 ft | 21 kts | 346° |
| 2026-05-05 12:53 | -33.94197 | 151.17693 | 28 ft | 22 kts | 346° |
| 2026-05-05 12:54 | -33.93906 | 151.17613 | 28 ft | 19 kts | 348° |
| 2026-05-05 12:54 | -33.93781 | 151.17580 | 28 ft | 15 kts | 348° |
| 2026-05-05 12:54 | -33.93688 | 151.17562 | 28 ft | 12 kts | 4° |
| 2026-05-05 12:55 | -33.93640 | 151.17635 | 29 ft | 12 kts | 85° |
| 2026-05-05 12:55 | -33.93651 | 151.17732 | 29 ft | 11 kts | 100° |
| 2026-05-05 12:55 | -33.93640 | 151.17810 | 29 ft | 9 kts | 27° |
| 2026-05-05 12:55 | -33.93584 | 151.17827 | 29 ft | 7 kts | 18° |
| 2026-05-05 12:56 | -33.93573 | 151.17876 | 29 ft | 6 kts | 96° |
| 2026-05-05 12:56 | -33.93576 | 151.17900 | 29 ft | 0 kts | 101° |